Time;durP1;ratioP1;P1;durP2;ratioP2;P2;SDS_P1;SDS_P2;PMS_P1;PMS_P2;Temp;Humidity;BMP_temperature;BMP_pressure;BME280_temperature;BME280_humidity;BME280_pressure;Samples;Min_cycle;Max_cycle;Signal;HPM_P1;HPM_P2
2022/06/27 00:00:58;;;;;;;5.17;4.00;;;;;;;18.69;100.00;99237.88;5115818;27;20215;-77
2022/06/27 00:03:25;;;;;;;4.20;3.73;;;;;;;18.66;100.00;99231.13;5115511;27;20271;-77
2022/06/27 00:05:51;;;;;;;4.17;3.83;;;;;;;18.68;100.00;99230.81;5124554;27;20240;-77
2022/06/27 00:08:18;;;;;;;4.30;4.00;;;;;;;18.63;100.00;99234.38;5119040;27;20232;-76
2022/06/27 00:10:45;;;;;;;4.10;3.70;;;;;;;18.56;100.00;99225.75;5115919;27;20218;-76
2022/06/27 00:13:11;;;;;;;4.00;3.70;;;;;;;18.57;100.00;99229.28;5123323;27;20229;-77
2022/06/27 00:15:38;;;;;;;4.20;3.80;;;;;;;18.56;100.00;99235.78;5124902;27;20229;-76
2022/06/27 00:18:04;;;;;;;4.87;3.83;;;;;;;18.56;100.00;99231.16;5118586;27;20605;-77
2022/06/27 00:20:31;;;;;;;4.53;4.03;;;;;;;18.55;100.00;99234.16;5110818;28;20310;-76
2022/06/27 00:22:58;;;;;;;4.30;3.90;;;;;;;18.55;100.00;99239.59;5116799;27;20686;-77
2022/06/27 00:25:25;;;;;;;4.23;3.93;;;;;;;18.52;100.00;99235.50;5117361;27;20303;-77
2022/06/27 00:27:51;;;;;;;3.87;3.67;;;;;;;18.48;100.00;99239.84;5111501;27;20652;-76
2022/06/27 00:30:20;;;;;;;4.40;3.87;;;;;;;18.45;100.00;99233.09;5103051;28;20236;-77
2022/06/27 00:32:48;;;;;;;3.67;3.37;;;;;;;18.42;100.00;99228.25;5094879;28;20230;-77
2022/06/27 00:35:14;;;;;;;4.10;3.80;;;;;;;18.39;100.00;99230.69;5089573;28;20656;-77
2022/06/27 00:37:41;;;;;;;4.00;3.70;;;;;;;18.35;100.00;99222.31;5105877;27;20809;-77
2022/06/27 00:40:08;;;;;;;4.17;3.53;;;;;;;18.31;100.00;99215.00;5101255;28;20326;-77
2022/06/27 00:42:35;;;;;;;3.60;3.30;;;;;;;18.31;100.00;99225.84;5113406;27;20230;-77
2022/06/27 00:45:04;;;;;;;3.60;3.40;;;;;;;18.28;100.00;99226.44;5113011;27;20245;-77
2022/06/27 00:47:31;;;;;;;3.70;3.50;;;;;;;18.27;100.00;99228.31;5086285;28;20329;-77
2022/06/27 00:49:57;;;;;;;3.90;3.30;;;;;;;18.30;100.00;99235.06;5109037;27;20312;-76
2022/06/27 00:52:24;;;;;;;3.63;3.40;;;;;;;18.26;100.00;99231.31;5116538;27;20275;-77
2022/06/27 00:54:51;;;;;;;3.60;3.30;;;;;;;18.15;100.00;99227.03;5115403;27;20267;-76
2022/06/27 00:57:18;;;;;;;3.23;3.03;;;;;;;18.12;100.00;99230.28;5097030;28;20864;-76
2022/06/27 00:59:45;;;;;;;3.80;3.50;;;;;;;18.09;100.00;99231.66;5107261;27;20306;-78
2022/06/27 01:02:12;;;;;;;3.70;3.40;;;;;;;18.06;100.00;99226.00;5104936;27;20753;-77
2022/06/27 01:04:39;;;;;;;3.53;3.23;;;;;;;18.05;100.00;99233.31;5108800;28;20222;-77
2022/06/27 01:07:07;;;;;;;3.77;3.47;;;;;;;18.01;100.00;99216.78;5110542;27;20237;-77
2022/06/27 01:09:41;;;;;;;3.60;3.30;;;;;;;18.03;100.00;99222.75;5117189;27;20270;-76
2022/06/27 01:12:08;;;;;;;3.87;3.50;;;;;;;17.98;100.00;99220.06;5110947;27;20234;-77
2022/06/27 01:14:35;;;;;;;3.97;3.37;;;;;;;18.00;100.00;99220.59;5109762;28;20690;-76
2022/06/27 01:17:02;;;;;;;3.33;3.13;;;;;;;17.95;100.00;99219.81;5103811;27;20784;-76
2022/06/27 01:19:28;;;;;;;3.97;3.67;;;;;;;17.95;100.00;99220.63;5091386;28;20234;-76
2022/06/27 01:21:57;;;;;;;3.90;3.60;;;;;;;17.89;100.00;99223.59;5093741;28;20235;-79
2022/06/27 01:24:26;;;;;;;3.80;3.57;;;;;;;17.82;100.00;99218.50;5076113;28;20278;-77
2022/06/27 01:26:53;;;;;;;3.60;3.40;;;;;;;17.78;100.00;99217.41;5077993;28;20790;-78
2022/06/27 01:29:20;;;;;;;3.77;3.50;;;;;;;17.79;100.00;99227.16;5074791;27;20236;-78
2022/06/27 01:31:48;;;;;;;3.60;3.40;;;;;;;17.76;100.00;99224.22;5099028;28;20226;-77
2022/06/27 01:34:15;;;;;;;3.53;3.23;;;;;;;17.76;100.00;99221.50;5081132;28;20681;-76
2022/06/27 01:36:44;;;;;;;3.30;3.10;;;;;;;17.72;100.00;99225.84;5087540;28;20225;-77
2022/06/27 01:39:21;;;;;;;3.83;3.53;;;;;;;17.71;100.00;99222.31;5090475;28;20229;-79
2022/06/27 01:41:50;;;;;;;3.87;3.57;;;;;;;17.66;100.00;99224.22;5102719;28;20242;-77
2022/06/27 01:44:18;;;;;;;3.63;3.37;;;;;;;17.65;100.00;99222.59;5086599;27;20314;-77
2022/06/27 01:46:54;;;;;;;3.73;3.30;;;;;;;17.63;100.00;99222.91;5089261;28;20236;-76
2022/06/27 01:49:23;;;;;;;3.87;3.57;;;;;;;17.63;100.00;99224.78;5090074;28;20314;-77
2022/06/27 01:51:50;;;;;;;3.40;3.20;;;;;;;17.61;100.00;99216.94;5110482;27;20272;-76
2022/06/27 01:54:20;;;;;;;4.30;3.73;;;;;;;17.56;100.00;99225.84;5093154;28;20238;-79
2022/06/27 01:56:49;;;;;;;3.73;3.50;;;;;;;17.56;100.00;99212.31;5086105;28;20234;-76
2022/06/27 01:59:17;;;;;;;3.80;3.50;;;;;;;17.58;100.00;99218.31;5100989;28;20229;-78
2022/06/27 02:01:44;;;;;;;3.97;3.77;;;;;;;17.56;100.00;99225.84;5078802;28;20233;-78
2022/06/27 02:04:12;;;;;;;3.87;3.57;;;;;;;17.55;100.00;99229.63;5091052;28;20659;-78
2022/06/27 02:06:40;;;;;;;3.83;3.47;;;;;;;17.52;100.00;99234.81;5085806;28;20250;-77
2022/06/27 02:09:11;;;;;;;3.60;3.40;;;;;;;17.52;100.00;99227.50;5084374;28;20283;-77
2022/06/27 02:11:40;;;;;;;3.73;3.50;;;;;;;17.48;100.00;99234.53;5069388;28;20221;-77
2022/06/27 02:14:11;;;;;;;4.23;3.90;;;;;;;17.48;100.00;99237.25;5103764;27;20247;-76
2022/06/27 02:16:41;;;;;;;4.20;3.80;;;;;;;17.45;100.00;99243.19;5098407;27;20298;-77
2022/06/27 02:19:17;;;;;;;4.70;3.80;;;;;;;17.42;100.00;99240.22;5113924;27;20233;-78
2022/06/27 02:21:44;;;;;;;4.23;3.83;;;;;;;17.41;100.00;99234.00;5077738;28;20655;-76
2022/06/27 02:24:11;;;;;;;4.33;3.93;;;;;;;17.40;100.00;99234.28;5107053;27;20328;-76
2022/06/27 02:26:38;;;;;;;4.67;4.37;;;;;;;17.39;100.00;99232.66;5123127;27;20223;-77
2022/06/27 02:29:05;;;;;;;4.57;4.17;;;;;;;17.37;100.00;99246.47;5116155;27;20293;-79
2022/06/27 02:31:33;;;;;;;4.93;4.53;;;;;;;17.36;100.00;99244.84;5114065;27;20292;-76
2022/06/27 02:34:00;;;;;;;4.63;4.33;;;;;;;17.37;100.00;99238.34;5113133;27;20224;-76
2022/06/27 02:36:32;;;;;;;5.10;4.60;;;;;;;17.36;100.00;99244.03;5094699;28;20222;-77
2022/06/27 02:39:00;;;;;;;5.17;4.77;;;;;;;17.39;100.00;99229.94;5093011;28;20224;-77
2022/06/27 02:41:32;;;;;;;5.47;5.07;;;;;;;17.34;100.00;99230.78;5115732;27;20259;-78
2022/06/27 02:44:02;;;;;;;5.40;5.00;;;;;;;17.37;100.00;99242.94;5101537;27;20237;-77
2022/06/27 02:46:30;;;;;;;5.47;5.03;;;;;;;17.38;100.00;99239.97;5107806;27;20231;-76
2022/06/27 02:48:58;;;;;;;6.03;5.53;;;;;;;17.42;100.00;99242.94;5101711;27;20240;-76
2022/06/27 02:51:27;;;;;;;5.97;5.43;;;;;;;17.40;100.00;99245.94;5085119;27;20261;-76
2022/06/27 02:54:07;;;;;;;5.37;4.97;;;;;;;17.38;100.00;99237.25;5118608;27;20228;-77
2022/06/27 02:56:55;;;;;;;5.70;5.30;;;;;;;17.40;100.00;99239.72;5102229;27;20711;-77
2022/06/27 02:59:29;;;;;;;5.67;5.27;;;;;;;17.42;100.00;99249.16;5095055;27;20228;-77
2022/06/27 03:01:56;;;;;;;6.80;5.50;;;;;;;17.41;100.00;99244.00;5086765;27;20225;-76
2022/06/27 03:04:39;;;;;;;6.53;5.30;;;;;;;17.42;100.00;99245.66;5081397;27;20240;-76
2022/06/27 03:07:06;;;;;;;6.27;5.03;;;;;;;17.41;100.00;99246.72;5105075;27;20697;-77
2022/06/27 03:09:34;;;;;;;5.57;5.07;;;;;;;17.45;100.00;99245.91;5100666;27;20246;-77
2022/06/27 03:12:03;;;;;;;5.47;5.07;;;;;;;17.48;100.00;99242.66;5098187;28;20742;-78
2022/06/27 03:14:32;;;;;;;5.50;5.00;;;;;;;17.52;100.00;99238.31;5096091;28;20225;-76
2022/06/27 03:16:58;;;;;;;5.37;5.03;;;;;;;17.55;100.00;99245.06;5107884;28;20228;-76
2022/06/27 03:19:31;;;;;;;5.80;5.30;;;;;;;17.57;100.00;99253.75;5097261;27;20234;-76
2022/06/27 03:22:12;;;;;;;5.83;5.30;;;;;;;17.56;100.00;99255.66;5099106;28;20716;-77
2022/06/27 03:24:39;;;;;;;5.43;5.00;;;;;;;17.62;100.00;99250.25;5099573;27;20224;-76
2022/06/27 03:27:06;;;;;;;5.30;4.80;;;;;;;17.68;100.00;99252.69;5110815;27;20225;-77
2022/06/27 03:29:33;;;;;;;5.43;5.03;;;;;;;17.68;100.00;99249.97;5106294;27;20244;-77
2022/06/27 03:32:01;;;;;;;5.37;4.97;;;;;;;17.77;100.00;99251.03;5093583;27;20227;-77
2022/06/27 03:34:28;;;;;;;5.17;4.67;;;;;;;17.84;100.00;99253.44;5097468;28;20306;-76
2022/06/27 03:37:07;;;;;;;5.20;4.80;;;;;;;17.88;100.00;99254.50;5107296;27;20265;-77
2022/06/27 03:39:34;;;;;;;5.40;5.00;;;;;;;17.96;100.00;99254.75;5105334;27;20229;-76
2022/06/27 03:42:01;;;;;;;4.83;4.53;;;;;;;18.02;100.00;99244.69;5094869;28;20229;-76
2022/06/27 03:44:29;;;;;;;5.43;4.97;;;;;;;18.09;100.00;99249.81;5096053;28;20277;-77
2022/06/27 03:46:55;;;;;;;5.40;4.90;;;;;;;18.16;100.00;99244.91;5095888;28;20224;-76
2022/06/27 03:52:31;;;;;;;5.93;5.43;;;;;;;18.33;100.00;99248.91;5092651;27;20311;-76
2022/06/27 03:54:58;;;;;;;5.80;5.40;;;;;;;18.40;100.00;99237.72;5102711;27;20707;-77
2022/06/27 03:57:25;;;;;;;5.83;5.20;;;;;;;18.51;100.00;99247.44;5096621;27;20255;-77
2022/06/27 03:59:53;;;;;;;5.63;5.20;;;;;;;18.62;100.00;99242.78;5105170;27;20248;-76
2022/06/27 04:02:20;;;;;;;5.70;5.27;;;;;;;18.70;100.00;99236.78;5098433;27;20245;-77
2022/06/27 04:05:22;;;;;;;5.67;5.20;;;;;;;19.01;100.00;99235.44;5121383;27;20234;-75
2022/06/27 04:07:49;;;;;;;5.77;5.17;;;;;;;19.70;100.00;99235.09;5101654;28;20245;-76
2022/06/27 04:10:16;;;;;;;5.33;4.93;;;;;;;20.38;100.00;99245.72;5102188;27;20291;-76
2022/06/27 04:12:42;;;;;;;5.33;4.93;;;;;;;20.90;100.00;99238.44;5117487;27;20240;-76
2022/06/27 04:15:27;;;;;;;5.80;5.20;;;;;;;21.53;100.00;99231.34;5118864;27;20241;-76
2022/06/27 04:18:12;;;;;;;5.50;4.97;;;;;;;22.05;100.00;99220.28;5110173;27;20594;-77
2022/06/27 04:20:51;;;;;;;5.50;4.90;;;;;;;22.49;100.00;99230.53;5113694;27;20237;-76
2022/06/27 04:23:21;;;;;;;5.07;4.67;;;;;;;23.02;100.00;99223.28;5093134;27;20232;-77
2022/06/27 04:26:08;;;;;;;4.90;4.30;;;;;;;23.63;100.00;99230.75;5069655;28;20321;-78
2022/06/27 04:28:36;;;;;;;4.97;4.57;;;;;;;24.33;100.00;99240.81;5097786;27;20250;-76
2022/06/27 04:31:02;;;;;;;5.38;4.50;;;;;;;24.85;100.00;99260.03;5098606;27;20603;-77
2022/06/27 04:33:29;;;;;;;5.18;4.78;;;;;;;25.65;100.00;99327.91;5114882;27;20279;-76
2022/06/27 04:36:02;;;;;;;4.55;4.15;;;;;;;26.61;98.92;99222.81;5102504;27;20232;-76
2022/06/27 04:38:31;;;;;;;4.88;4.30;;;;;;;27.18;91.40;99208.44;5095346;27;20286;-75
2022/06/27 04:41:00;;;;;;;6.10;4.20;;;;;;;27.51;85.62;99213.91;5112420;27;20240;-76
2022/06/27 04:43:28;;;;;;;4.32;3.83;;;;;;;27.05;89.61;99215.03;5110175;27;20230;-77
2022/06/27 04:45:55;;;;;;;5.07;3.55;;;;;;;26.54;97.84;99210.75;5104179;27;20274;-76
2022/06/27 04:49:00;;;;;;;4.07;3.50;;;;;;;26.06;100.00;99212.00;5121738;27;20234;-78
2022/06/27 04:51:27;;;;;;;4.35;3.53;;;;;;;25.88;100.00;99205.00;5091447;27;20219;-78
2022/06/27 04:53:53;;;;;;;3.67;3.20;;;;;;;25.79;100.00;99212.47;5091256;28;20235;-77
2022/06/27 04:56:20;;;;;;;4.35;3.33;;;;;;;25.74;100.00;99213.47;5118422;27;20683;-79
2022/06/27 04:58:47;;;;;;;3.90;3.40;;;;;;;25.70;100.00;99209.78;5119244;27;20329;-78
2022/06/27 05:01:16;;;;;;;3.88;2.65;;;;;;;25.69;100.00;99215.56;5106474;27;20241;-79
2022/06/27 05:03:58;;;;;;;3.65;2.90;;;;;;;25.75;100.00;99215.06;5099445;27;20227;-78
2022/06/27 05:06:31;;;;;;;6.03;2.97;;;;;;;25.81;100.00;99218.41;5100583;27;20228;-78
2022/06/27 05:08:59;;;;;;;3.38;2.90;;;;;;;25.94;100.00;99220.16;5096421;28;20231;-77
2022/06/27 05:11:26;;;;;;;2.80;2.50;;;;;;;26.10;100.00;99223.13;5105070;28;20238;-78
2022/06/27 05:13:53;;;;;;;2.80;2.60;;;;;;;26.24;100.00;99213.53;5107156;27;20234;-79
2022/06/27 05:16:33;;;;;;;4.40;2.65;;;;;;;26.42;100.00;99213.41;5091284;28;20227;-79
2022/06/27 05:19:00;;;;;;;4.25;2.83;;;;;;;26.47;100.00;99224.22;5091122;28;20235;-78
2022/06/27 05:21:45;;;;;;;5.70;2.50;;;;;;;26.66;96.89;99224.53;5102237;27;20284;-78
2022/06/27 05:24:15;;;;;;;3.65;2.80;;;;;;;26.86;94.76;99211.97;5095214;27;20220;-78
2022/06/27 05:26:41;;;;;;;3.28;2.53;;;;;;;26.96;92.35;99217.06;5100519;27;20235;-80
2022/06/27 05:29:09;;;;;;;2.95;2.50;;;;;;;27.11;90.61;99217.22;5099417;28;20236;-78
2022/06/27 05:31:36;;;;;;;5.20;2.63;;;;;;;27.21;87.54;99228.94;5104541;27;20226;-78
2022/06/27 05:34:03;;;;;;;5.18;2.65;;;;;;;27.38;84.89;99231.53;5097804;28;20668;-79
2022/06/27 05:36:30;;;;;;;3.90;3.20;;;;;;;27.54;83.65;99230.53;5123988;27;20314;-78
2022/06/27 05:38:57;;;;;;;2.92;2.50;;;;;;;27.62;84.33;99231.59;5099676;27;20238;-79
2022/06/27 05:41:24;;;;;;;4.25;2.80;;;;;;;27.82;80.66;99236.19;5116110;27;20285;-78
2022/06/27 05:43:59;;;;;;;4.05;2.55;;;;;;;27.93;79.13;99242.88;5097516;28;20248;-78
2022/06/27 05:46:27;;;;;;;3.80;2.45;;;;;;;28.08;77.10;99235.06;5099923;27;20646;-80
2022/06/27 05:49:01;;;;;;;3.63;2.47;;;;;;;28.01;77.62;99225.41;5113388;27;20243;-78
2022/06/27 05:51:37;;;;;;;6.50;3.00;;;;;;;28.20;76.13;99224.88;5095879;28;20641;-78
2022/06/27 05:54:05;;;;;;;3.75;2.65;;;;;;;28.25;75.36;99232.09;5095393;27;20236;-78
2022/06/27 05:56:33;;;;;;;4.45;2.75;;;;;;;28.34;74.95;99238.28;5091881;28;20711;-78
2022/06/27 05:59:02;;;;;;;3.30;2.50;;;;;;;28.35;74.48;99226.94;5103739;27;20323;-78
2022/06/27 06:01:28;;;;;;;5.78;2.80;;;;;;;28.39;73.28;99236.09;5094238;27;20224;-77
2022/06/27 06:03:56;;;;;;;5.25;2.72;;;;;;;28.47;71.84;99228.84;5104109;27;20337;-81
2022/06/27 06:06:24;;;;;;;4.38;2.80;;;;;;;28.45;73.01;99233.91;5099829;28;21262;-81
2022/06/27 06:08:53;;;;;;;4.85;2.65;;;;;;;28.62;74.72;99241.91;5101855;28;20248;-77
2022/06/27 06:11:20;;;;;;;6.43;2.95;;;;;;;28.77;73.98;99243.16;5091314;28;20224;-81
2022/06/27 06:13:47;;;;;;;3.00;2.70;;;;;;;28.90;74.72;99236.44;5088671;28;20323;-80
2022/06/27 06:16:16;;;;;;;4.85;2.60;;;;;;;28.85;74.04;99242.22;5107090;28;20274;-78
2022/06/27 06:18:44;;;;;;;4.20;2.80;;;;;;;28.98;74.96;99242.97;5089101;28;20223;-80
2022/06/27 06:21:11;;;;;;;2.85;2.47;;;;;;;29.03;74.90;99250.97;5110006;28;20231;-78
2022/06/27 06:23:38;;;;;;;6.47;2.90;;;;;;;29.18;74.28;99251.03;5090903;28;20288;-79
2022/06/27 06:26:05;;;;;;;3.83;2.67;;;;;;;29.21;73.55;99242.06;5098936;28;20319;-78
2022/06/27 06:28:32;;;;;;;4.40;2.78;;;;;;;29.21;71.93;99252.28;5078012;28;20258;-78
2022/06/27 06:31:01;;;;;;;4.18;2.90;;;;;;;29.22;71.50;99256.66;5107102;28;20263;-79
2022/06/27 06:33:31;;;;;;;4.57;3.00;;;;;;;29.13;72.09;99256.00;5098264;28;20226;-78
2022/06/27 06:35:57;;;;;;;3.13;2.90;;;;;;;29.16;73.47;99255.31;5101108;28;20269;-78
2022/06/27 06:38:25;;;;;;;5.43;3.05;;;;;;;29.17;73.16;99256.91;5097071;28;20703;-78
2022/06/27 06:40:53;;;;;;;4.38;2.67;;;;;;;29.23;73.91;99255.50;5095582;28;20323;-78
2022/06/27 06:43:19;;;;;;;3.22;2.90;;;;;;;29.30;73.16;99258.50;5104073;28;20566;-79
2022/06/27 06:46:05;;;;;;;5.32;2.97;;;;;;;29.38;71.82;99256.72;5105509;28;20258;-78
2022/06/27 06:48:42;;;;;;;4.03;2.75;;;;;;;29.53;72.15;99262.28;5070712;28;20286;-77
2022/06/27 06:51:16;;;;;;;4.40;2.80;;;;;;;29.48;71.44;99250.69;5065143;28;20247;-78
2022/06/27 06:53:45;;;;;;;3.95;2.75;;;;;;;29.59;72.22;99251.75;5068871;28;20228;-78
2022/06/27 06:56:12;;;;;;;4.25;3.00;;;;;;;29.83;71.40;99248.03;5070974;28;20258;-78
2022/06/27 06:58:39;;;;;;;5.20;3.10;;;;;;;29.94;70.67;99251.91;5067625;28;20224;-79
2022/06/27 07:01:06;;;;;;;3.83;2.60;;;;;;;30.04;70.88;99243.91;5077940;28;20318;-78
2022/06/27 07:03:34;;;;;;;2.92;2.70;;;;;;;30.23;67.99;99251.44;5078482;28;20304;-78
2022/06/27 07:06:02;;;;;;;3.22;2.90;;;;;;;30.21;66.47;99251.00;5067560;28;20650;-77
2022/06/27 07:08:30;;;;;;;3.25;2.90;;;;;;;30.22;67.77;99249.84;5060146;28;20283;-80
2022/06/27 07:10:58;;;;;;;5.55;2.88;;;;;;;30.37;67.80;99250.97;5073796;28;20742;-77
2022/06/27 07:13:24;;;;;;;4.63;3.10;;;;;;;30.44;66.66;99243.63;5068626;28;20225;-77
2022/06/27 07:15:51;;;;;;;4.65;2.80;;;;;;;30.35;66.50;99243.03;5071131;28;20287;-79
2022/06/27 07:18:18;;;;;;;4.75;2.97;;;;;;;30.42;66.81;99245.94;5065839;28;20242;-78
2022/06/27 07:20:45;;;;;;;3.35;2.80;;;;;;;30.49;66.67;99240.63;5063386;28;20245;-78
2022/06/27 07:23:12;;;;;;;5.22;2.85;;;;;;;30.51;64.82;99243.03;5069837;28;20229;-78
2022/06/27 07:25:38;;;;;;;5.20;2.88;;;;;;;30.66;64.78;99235.81;5070862;28;20224;-78
2022/06/27 07:28:08;;;;;;;3.90;2.70;;;;;;;30.76;64.34;99236.06;5072584;28;20328;-78
2022/06/27 07:30:36;;;;;;;5.00;3.00;;;;;;;30.86;63.90;99234.69;5074174;28;20270;-78
2022/06/27 07:33:03;;;;;;;5.68;2.92;;;;;;;30.77;63.41;99234.91;5058536;28;20256;-78
2022/06/27 07:35:30;;;;;;;5.18;2.88;;;;;;;30.88;63.84;99241.47;5063873;28;20325;-78
2022/06/27 07:37:58;;;;;;;3.72;2.75;;;;;;;31.01;62.44;99245.72;5059171;28;20240;-78
2022/06/27 07:40:25;;;;;;;5.53;2.95;;;;;;;31.10;62.57;99236.38;5065658;28;20325;-78
2022/06/27 07:42:53;;;;;;;4.80;2.80;;;;;;;31.14;62.41;99234.47;5068444;28;20254;-79
2022/06/27 07:45:21;;;;;;;3.15;2.88;;;;;;;31.26;61.55;99239.88;5076405;28;20253;-79
2022/06/27 07:47:48;;;;;;;3.15;2.90;;;;;;;31.42;60.12;99235.81;5064421;28;20778;-78
2022/06/27 07:50:36;;;;;;;5.07;2.72;;;;;;;31.42;60.65;99233.06;5067721;28;20380;-78
2022/06/27 07:53:20;;;;;;;5.93;2.72;;;;;;;31.63;60.04;99232.69;5064909;28;20392;-79
2022/06/27 07:55:55;;;;;;;4.45;2.70;;;;;;;31.77;58.80;99229.38;5064342;28;20315;-79
2022/06/27 07:58:30;;;;;;;3.85;2.55;;;;;;;31.60;57.29;99235.38;5064041;28;20229;-78
2022/06/27 08:00:58;;;;;;;3.83;2.78;;;;;;;31.52;60.64;99237.19;5075211;28;20231;-79
2022/06/27 08:03:40;;;;;;;4.40;2.67;;;;;;;31.63;59.36;99235.47;5075158;28;20217;-79
2022/06/27 08:06:14;;;;;;;5.90;2.90;;;;;;;31.80;58.89;99236.91;5068860;28;20239;-79
2022/06/27 08:08:47;;;;;;;3.75;2.67;;;;;;;31.75;59.67;99238.03;5069582;28;20242;-78
2022/06/27 08:11:24;;;;;;;3.40;3.10;;;;;;;31.74;59.72;99227.31;5069733;28;20233;-79
2022/06/27 08:13:55;;;;;;;3.63;2.75;;;;;;;31.75;59.03;99229.72;5066781;28;20229;-79
2022/06/27 08:16:24;;;;;;;4.45;2.55;;;;;;;31.76;60.32;99227.75;5068217;28;20263;-78
2022/06/27 08:18:51;;;;;;;3.60;2.90;;;;;;;31.82;59.74;99224.28;5067479;28;20383;-78
2022/06/27 08:21:20;;;;;;;4.70;2.60;;;;;;;31.94;57.16;99239.13;5072741;28;20315;-80
2022/06/27 08:23:49;;;;;;;3.83;2.75;;;;;;;31.97;55.22;99232.81;5060837;28;20221;-78
2022/06/27 08:26:16;;;;;;;4.22;2.40;;;;;;;31.90;52.22;99225.22;5075376;28;20406;-79
2022/06/27 08:28:44;;;;;;;3.42;2.70;;;;;;;31.93;54.78;99230.00;5063269;28;20237;-79
2022/06/27 08:31:12;;;;;;;4.03;2.47;;;;;;;32.06;46.21;99227.81;5068916;28;20321;-79
2022/06/27 08:33:40;;;;;;;7.53;2.70;;;;;;;32.08;44.87;99242.94;5073599;28;20641;-79
2022/06/27 08:36:08;;;;;;;4.47;2.42;;;;;;;32.15;44.62;99226.44;5060858;28;20225;-79
2022/06/27 08:38:48;;;;;;;4.40;2.28;;;;;;;32.27;44.91;99223.47;5078598;28;20228;-78
2022/06/27 08:41:16;;;;;;;4.82;2.42;;;;;;;32.36;45.80;99225.94;5077024;28;20239;-79
2022/06/27 08:43:43;;;;;;;4.50;2.70;;;;;;;32.41;44.40;99233.94;5078304;28;20251;-78
2022/06/27 08:46:15;;;;;;;3.17;2.25;;;;;;;32.53;43.80;99221.81;5078162;28;20335;-79
2022/06/27 08:48:45;;;;;;;7.03;2.72;;;;;;;32.59;44.01;99226.69;5112552;27;20235;-78
2022/06/27 08:51:12;;;;;;;3.50;2.50;;;;;;;32.48;43.33;99222.94;5093109;28;20240;-78
2022/06/27 08:53:39;;;;;;;5.82;2.38;;;;;;;32.56;42.92;99218.31;5096583;28;20213;-79
2022/06/27 08:56:10;;;;;;;5.43;2.33;;;;;;;32.64;43.44;99223.59;5097600;28;20323;-78
2022/06/27 08:58:37;;;;;;;4.15;2.55;;;;;;;32.64;42.30;99217.25;5090967;28;20296;-81
2022/06/27 09:01:04;;;;;;;3.85;2.60;;;;;;;32.57;43.56;99226.25;5095562;28;20327;-78
2022/06/27 09:03:32;;;;;;;3.42;2.22;;;;;;;32.52;43.98;99223.78;5086390;28;20228;-79
2022/06/27 09:06:07;;;;;;;4.65;2.40;;;;;;;32.62;44.33;99214.03;5092116;28;20235;-79
2022/06/27 09:08:37;;;;;;;3.72;2.67;;;;;;;32.65;43.33;99224.41;5092191;28;20235;-79
2022/06/27 09:11:04;;;;;;;4.60;2.40;;;;;;;32.60;43.16;99216.38;5081588;28;20340;-79
2022/06/27 09:13:31;;;;;;;4.55;2.28;;;;;;;32.80;42.49;99223.41;5091201;28;20788;-78
2022/06/27 09:16:03;;;;;;;6.30;2.75;;;;;;;32.74;42.87;99222.16;5094162;28;20302;-78
2022/06/27 09:18:33;;;;;;;3.45;2.70;;;;;;;32.91;42.80;99218.78;5091942;28;20231;-79
2022/06/27 09:21:03;;;;;;;4.65;2.50;;;;;;;32.99;44.14;99228.00;5096877;28;20228;-79
2022/06/27 09:23:42;;;;;;;4.10;2.70;;;;;;;33.11;44.33;99225.78;5096421;28;20312;-79
2022/06/27 09:26:22;;;;;;;3.50;2.40;;;;;;;33.18;42.35;99222.28;5099681;28;20228;-79
2022/06/27 09:28:53;;;;;;;4.25;2.83;;;;;;;33.29;42.58;99211.31;5093997;27;20222;-79
2022/06/27 09:31:26;;;;;;;7.07;2.70;;;;;;;33.39;43.63;99225.31;5103620;27;20334;-80
2022/06/27 09:34:19;;;;;;;4.72;2.97;;;;;;;33.19;40.77;99212.78;5100039;28;20258;-81
2022/06/27 09:36:59;;;;;;;3.40;2.55;;;;;;;33.27;41.01;99222.78;5099503;28;20648;-81
2022/06/27 09:39:30;;;;;;;4.57;2.53;;;;;;;33.30;41.69;99219.25;5080141;28;20231;-78
2022/06/27 09:41:59;;;;;;;4.00;2.70;;;;;;;33.29;41.32;99216.84;5089843;28;20318;-80
2022/06/27 09:44:35;;;;;;;3.20;2.60;;;;;;;33.30;39.87;99224.81;5091163;28;20696;-79
2022/06/27 09:47:26;;;;;;;3.35;2.60;;;;;;;33.39;41.53;99216.19;5100269;27;20231;-80
2022/06/27 09:49:56;;;;;;;4.47;2.60;;;;;;;33.42;41.42;99209.84;5115655;27;20695;-80
2022/06/27 09:52:24;;;;;;;3.72;2.63;;;;;;;33.48;40.64;99203.56;5107237;28;20283;-80
2022/06/27 09:54:53;;;;;;;5.07;3.08;;;;;;;33.54;40.68;99202.06;5117788;27;20261;-80
2022/06/27 09:57:20;;;;;;;3.45;2.72;;;;;;;33.60;40.26;99202.47;5098752;28;20394;-80
2022/06/27 09:59:49;;;;;;;6.85;2.83;;;;;;;33.58;40.28;99199.31;5109570;27;20261;-82
2022/06/27 10:02:17;;;;;;;4.22;3.15;;;;;;;33.62;39.74;99198.16;5099515;28;20287;-80
2022/06/27 10:04:48;;;;;;;3.75;2.63;;;;;;;33.78;40.08;99197.13;5106037;28;20311;-79
2022/06/27 10:07:16;;;;;;;3.92;2.80;;;;;;;33.85;38.99;99197.16;5088766;28;20242;-79
2022/06/27 10:09:44;;;;;;;3.60;2.88;;;;;;;33.86;38.78;99190.44;5103695;28;20644;-80
2022/06/27 10:12:31;;;;;;;4.28;2.65;;;;;;;33.97;38.61;99186.53;5108127;28;20307;-80
2022/06/27 10:15:10;;;;;;;4.40;2.60;;;;;;;34.01;39.60;99206.84;5102524;28;20238;-80
2022/06/27 10:17:43;;;;;;;5.07;2.70;;;;;;;34.15;38.69;99186.69;5115825;28;20318;-80
2022/06/27 10:20:26;;;;;;;3.92;2.83;;;;;;;34.06;39.36;99202.91;5114766;28;20231;-81
2022/06/27 10:23:08;;;;;;;3.65;2.75;;;;;;;34.19;38.92;99203.41;5116034;28;20690;-80
2022/06/27 10:25:41;;;;;;;5.45;2.65;;;;;;;34.14;38.62;99204.53;5108364;28;20242;-80
2022/06/27 10:28:10;;;;;;;5.40;2.92;;;;;;;34.18;39.77;99199.81;5113769;28;20222;-80
2022/06/27 10:30:52;;;;;;;6.65;2.88;;;;;;;34.29;40.30;99184.03;5117760;28;20614;-80
2022/06/27 10:33:22;;;;;;;4.68;2.63;;;;;;;34.29;37.93;99186.81;5121649;28;20234;-80
2022/06/27 10:35:57;;;;;;;5.15;2.88;;;;;;;34.39;37.56;99179.69;5125739;27;20664;-80
2022/06/27 10:38:25;;;;;;;3.88;2.30;;;;;;;34.50;38.07;99180.53;5115176;27;20234;-80
2022/06/27 10:40:53;;;;;;;4.35;2.75;;;;;;;34.46;36.84;99188.88;5113060;27;20224;-79
2022/06/27 10:43:35;;;;;;;4.10;2.63;;;;;;;34.49;37.21;99185.31;5106836;27;20230;-79
2022/06/27 10:46:05;;;;;;;3.35;2.97;;;;;;;34.68;37.26;99178.66;5126007;27;20308;-80
2022/06/27 10:48:39;;;;;;;2.63;2.42;;;;;;;34.72;36.69;99171.13;5119046;27;20238;-81
2022/06/27 10:51:18;;;;;;;6.00;2.90;;;;;;;34.73;36.44;99167.16;5101871;27;20224;-80
2022/06/27 10:54:03;;;;;;;5.03;2.88;;;;;;;34.90;36.12;99174.75;5102381;27;20265;-79
2022/06/27 10:56:34;;;;;;;4.00;2.60;;;;;;;34.92;36.76;99171.59;5101268;27;20231;-78
2022/06/27 10:59:03;;;;;;;5.05;2.60;;;;;;;35.03;36.12;99174.41;5089821;28;20228;-80
2022/06/27 11:01:30;;;;;;;4.50;2.75;;;;;;;35.13;36.42;99163.31;5104666;27;20232;-80
2022/06/27 11:03:58;;;;;;;5.57;2.80;;;;;;;35.17;35.43;99163.34;5092463;28;20722;-79
2022/06/27 11:06:25;;;;;;;5.78;2.50;;;;;;;35.28;37.03;99167.72;5096627;28;20314;-79
2022/06/27 11:08:54;;;;;;;4.75;2.70;;;;;;;35.29;36.07;99162.94;5109864;27;20317;-79
2022/06/27 11:11:25;;;;;;;3.42;3.00;;;;;;;35.45;34.78;99159.78;5100907;27;20769;-79
2022/06/27 11:13:53;;;;;;;4.32;2.58;;;;;;;35.52;34.25;99159.78;5098823;27;20238;-80
2022/06/27 11:16:19;;;;;;;5.60;2.70;;;;;;;35.47;34.32;99160.19;5097811;28;20731;-79
2022/06/27 11:19:04;;;;;;;3.83;2.80;;;;;;;35.48;34.92;99153.41;5111764;27;20239;-79
2022/06/27 11:21:36;;;;;;;6.78;2.83;;;;;;;35.52;35.04;99160.59;5113271;27;20227;-80
2022/06/27 11:24:05;;;;;;;4.43;2.67;;;;;;;35.45;35.35;99149.47;5096704;27;20227;-79
2022/06/27 11:26:37;;;;;;;6.97;2.80;;;;;;;35.59;35.59;99155.03;5106606;28;20303;-78
2022/06/27 11:32:08;;;;;;;6.32;2.92;;;;;;;35.71;36.14;99149.06;5117589;27;20237;-79
2022/06/27 11:34:48;;;;;;;7.40;2.95;;;;;;;35.80;35.98;99154.25;5092965;28;20315;-80
2022/06/27 11:37:23;;;;;;;5.53;2.60;;;;;;;35.85;37.22;99159.41;5112382;27;20771;-81
2022/06/27 11:40:04;;;;;;;2.90;2.70;;;;;;;35.88;34.97;99147.47;5120335;27;20230;-80
2022/06/27 11:42:33;;;;;;;5.82;2.70;;;;;;;36.08;35.14;99140.25;5090991;27;20254;-80
2022/06/27 11:45:10;;;;;;;4.53;2.80;;;;;;;36.08;34.69;99150.59;5107990;27;20247;-80
2022/06/27 11:47:40;;;;;;;4.10;2.65;;;;;;;36.15;34.61;99147.84;5106950;27;20247;-79
2022/06/27 11:50:12;;;;;;;4.40;2.50;;;;;;;36.08;34.56;99145.84;5099511;27;20240;-80